Huvudsida
METAR-TAF:

METAR-TAF

Flygplatser :

Agen, Frankrike

latitud: 44-11N, longitud: 000-36E, höjd: 61 m

Aktuellt väderrapport

Denna rapport gjordes för 33 minuter sedan, klockan 15:00 UTC
Vind 13 kt från nord/nordväst
Temperatur 13°C
Fuktighet 58%
Tryck 1018 hPa
Sikt 10 km eller mer
Mulet på en höjd av 3600 ft

METAR: LFBA 291500Z AUTO 34013KT 9999 OVC036 13/05 Q1018

Tid: 17:33 (15:33 UTC)


TAF: saknas

Aktuella väderrapporter och prognoser från 4000 flygplatser (METAR- och TAF-rapporter).

De tillgängliga stationerna syns som gula och röda prickar på kartan.

För musen över prickarna för att se namnen på stationerna.

Klicka sedan för att få väderrapporter och prognoser.

För att ändra kartan: Klicka på de gröna knapparna med ett svart kors på för att zooma in; den gröna knappen med ett streck på för att zooma ut; eller på de gröna pilarna för angränsande kartor.


METAR-TAF: